sensor_id;sensor_type;location;lat;lon;timestamp;P1;durP1;ratioP1;P2;durP2;ratioP2
10309;SDS011;5200;43.236;27.986;2023-10-13T00:01:08;2.90;;;1.63;;
10309;SDS011;5200;43.236;27.986;2023-10-13T00:03:38;3.20;;;1.80;;
10309;SDS011;5200;43.236;27.986;2023-10-13T00:06:06;1.83;;;1.70;;
10309;SDS011;5200;43.236;27.986;2023-10-13T00:08:33;3.83;;;1.60;;
10309;SDS011;5200;43.236;27.986;2023-10-13T00:11:02;5.57;;;1.60;;
10309;SDS011;5200;43.236;27.986;2023-10-13T00:13:30;3.03;;;1.60;;
10309;SDS011;5200;43.236;27.986;2023-10-13T00:16:06;4.53;;;1.73;;
10309;SDS011;5200;43.236;27.986;2023-10-13T00:18:35;3.88;;;1.60;;
10309;SDS011;5200;43.236;27.986;2023-10-13T00:21:08;4.80;;;1.73;;
10309;SDS011;5200;43.236;27.986;2023-10-13T00:23:38;2.35;;;1.60;;
10309;SDS011;5200;43.236;27.986;2023-10-13T00:26:08;6.57;;;2.22;;
10309;SDS011;5200;43.236;27.986;2023-10-13T00:28:35;3.63;;;1.60;;
10309;SDS011;5200;43.236;27.986;2023-10-13T00:31:10;5.43;;;1.95;;
10309;SDS011;5200;43.236;27.986;2023-10-13T00:33:39;5.93;;;1.55;;
10309;SDS011;5200;43.236;27.986;2023-10-13T00:36:08;4.32;;;2.38;;
10309;SDS011;5200;43.236;27.986;2023-10-13T00:38:42;3.60;;;2.35;;
10309;SDS011;5200;43.236;27.986;2023-10-13T00:41:13;3.55;;;2.00;;
10309;SDS011;5200;43.236;27.986;2023-10-13T00:43:45;4.32;;;1.67;;
10309;SDS011;5200;43.236;27.986;2023-10-13T00:46:30;2.90;;;1.90;;
10309;SDS011;5200;43.236;27.986;2023-10-13T00:48:58;3.55;;;1.88;;
10309;SDS011;5200;43.236;27.986;2023-10-13T00:51:27;3.95;;;1.67;;
10309;SDS011;5200;43.236;27.986;2023-10-13T00:54:02;2.40;;;1.60;;
10309;SDS011;5200;43.236;27.986;2023-10-13T00:56:33;2.25;;;1.65;;
10309;SDS011;5200;43.236;27.986;2023-10-13T00:59:05;2.78;;;1.40;;
10309;SDS011;5200;43.236;27.986;2023-10-13T01:01:35;3.78;;;1.85;;
10309;SDS011;5200;43.236;27.986;2023-10-13T01:04:02;1.52;;;1.38;;
10309;SDS011;5200;43.236;27.986;2023-10-13T01:06:31;3.60;;;1.80;;
10309;SDS011;5200;43.236;27.986;2023-10-13T01:09:00;2.72;;;1.67;;
10309;SDS011;5200;43.236;27.986;2023-10-13T01:11:35;5.68;;;1.85;;
10309;SDS011;5200;43.236;27.986;2023-10-13T01:14:02;6.00;;;1.77;;
10309;SDS011;5200;43.236;27.986;2023-10-13T01:16:29;5.15;;;1.50;;
10309;SDS011;5200;43.236;27.986;2023-10-13T01:18:56;5.22;;;1.63;;
10309;SDS011;5200;43.236;27.986;2023-10-13T01:21:25;4.97;;;1.95;;
10309;SDS011;5200;43.236;27.986;2023-10-13T01:23:55;2.95;;;2.10;;
10309;SDS011;5200;43.236;27.986;2023-10-13T01:26:21;1.77;;;1.65;;
10309;SDS011;5200;43.236;27.986;2023-10-13T01:28:51;3.50;;;1.60;;
10309;SDS011;5200;43.236;27.986;2023-10-13T01:31:19;4.57;;;1.73;;
10309;SDS011;5200;43.236;27.986;2023-10-13T01:33:55;4.03;;;1.80;;
10309;SDS011;5200;43.236;27.986;2023-10-13T01:36:24;2.67;;;1.50;;
10309;SDS011;5200;43.236;27.986;2023-10-13T01:38:51;4.65;;;1.80;;
10309;SDS011;5200;43.236;27.986;2023-10-13T01:41:20;5.07;;;2.03;;
10309;SDS011;5200;43.236;27.986;2023-10-13T01:43:46;4.03;;;1.52;;
10309;SDS011;5200;43.236;27.986;2023-10-13T01:46:14;3.58;;;2.00;;
10309;SDS011;5200;43.236;27.986;2023-10-13T01:48:44;2.33;;;1.67;;
10309;SDS011;5200;43.236;27.986;2023-10-13T01:51:11;2.67;;;1.85;;
10309;SDS011;5200;43.236;27.986;2023-10-13T01:53:37;7.47;;;2.05;;
10309;SDS011;5200;43.236;27.986;2023-10-13T01:56:05;6.80;;;2.28;;
10309;SDS011;5200;43.236;27.986;2023-10-13T01:58:36;5.28;;;3.20;;
10309;SDS011;5200;43.236;27.986;2023-10-13T02:01:07;6.68;;;2.08;;
10309;SDS011;5200;43.236;27.986;2023-10-13T02:03:34;3.92;;;2.20;;
10309;SDS011;5200;43.236;27.986;2023-10-13T02:06:06;3.45;;;1.92;;
10309;SDS011;5200;43.236;27.986;2023-10-13T02:08:35;3.47;;;1.92;;
10309;SDS011;5200;43.236;27.986;2023-10-13T02:11:05;5.40;;;2.20;;
10309;SDS011;5200;43.236;27.986;2023-10-13T02:13:32;3.63;;;2.20;;
10309;SDS011;5200;43.236;27.986;2023-10-13T02:16:07;4.35;;;1.90;;
10309;SDS011;5200;43.236;27.986;2023-10-13T02:18:34;5.68;;;2.00;;
10309;SDS011;5200;43.236;27.986;2023-10-13T02:21:07;3.67;;;1.95;;
10309;SDS011;5200;43.236;27.986;2023-10-13T02:23:38;3.05;;;1.60;;
10309;SDS011;5200;43.236;27.986;2023-10-13T02:26:10;3.92;;;1.65;;
10309;SDS011;5200;43.236;27.986;2023-10-13T02:28:37;1.80;;;1.50;;
10309;SDS011;5200;43.236;27.986;2023-10-13T02:31:04;2.42;;;1.73;;
10309;SDS011;5200;43.236;27.986;2023-10-13T02:33:33;4.80;;;1.90;;
10309;SDS011;5200;43.236;27.986;2023-10-13T02:36:02;2.72;;;1.75;;
10309;SDS011;5200;43.236;27.986;2023-10-13T02:38:30;4.60;;;1.75;;
10309;SDS011;5200;43.236;27.986;2023-10-13T02:41:00;1.88;;;1.48;;
10309;SDS011;5200;43.236;27.986;2023-10-13T02:43:32;4.68;;;2.10;;
10309;SDS011;5200;43.236;27.986;2023-10-13T02:45:59;2.78;;;1.58;;
10309;SDS011;5200;43.236;27.986;2023-10-13T02:48:27;3.70;;;1.98;;
10309;SDS011;5200;43.236;27.986;2023-10-13T02:51:00;2.33;;;1.70;;
10309;SDS011;5200;43.236;27.986;2023-10-13T02:53:31;3.55;;;1.60;;
10309;SDS011;5200;43.236;27.986;2023-10-13T02:55:57;2.42;;;1.63;;
10309;SDS011;5200;43.236;27.986;2023-10-13T02:58:31;4.10;;;1.83;;
10309;SDS011;5200;43.236;27.986;2023-10-13T03:01:05;2.85;;;1.70;;
10309;SDS011;5200;43.236;27.986;2023-10-13T03:03:42;3.97;;;2.15;;
10309;SDS011;5200;43.236;27.986;2023-10-13T03:06:14;2.78;;;1.67;;
10309;SDS011;5200;43.236;27.986;2023-10-13T03:08:41;2.85;;;1.70;;
10309;SDS011;5200;43.236;27.986;2023-10-13T03:11:08;5.72;;;1.67;;
10309;SDS011;5200;43.236;27.986;2023-10-13T03:13:36;2.50;;;1.90;;
10309;SDS011;5200;43.236;27.986;2023-10-13T03:16:10;2.60;;;1.75;;
10309;SDS011;5200;43.236;27.986;2023-10-13T03:18:41;5.18;;;1.70;;
10309;SDS011;5200;43.236;27.986;2023-10-13T03:21:18;3.60;;;1.67;;
10309;SDS011;5200;43.236;27.986;2023-10-13T03:23:53;4.53;;;1.83;;
10309;SDS011;5200;43.236;27.986;2023-10-13T03:26:21;2.95;;;1.90;;
10309;SDS011;5200;43.236;27.986;2023-10-13T03:28:47;4.15;;;2.45;;
10309;SDS011;5200;43.236;27.986;2023-10-13T03:31:18;10.05;;;2.70;;
10309;SDS011;5200;43.236;27.986;2023-10-13T03:33:51;4.90;;;1.90;;
10309;SDS011;5200;43.236;27.986;2023-10-13T03:36:23;2.20;;;1.65;;
10309;SDS011;5200;43.236;27.986;2023-10-13T03:39:22;3.05;;;1.80;;
10309;SDS011;5200;43.236;27.986;2023-10-13T03:41:54;3.42;;;1.42;;
10309;SDS011;5200;43.236;27.986;2023-10-13T03:44:22;11.90;;;2.00;;
10309;SDS011;5200;43.236;27.986;2023-10-13T03:46:48;4.97;;;2.20;;
10309;SDS011;5200;43.236;27.986;2023-10-13T03:49:19;2.72;;;1.80;;
10309;SDS011;5200;43.236;27.986;2023-10-13T03:51:48;7.68;;;2.10;;
10309;SDS011;5200;43.236;27.986;2023-10-13T03:54:19;4.07;;;1.60;;
10309;SDS011;5200;43.236;27.986;2023-10-13T03:56:46;4.13;;;2.00;;
10309;SDS011;5200;43.236;27.986;2023-10-13T03:59:17;4.40;;;1.63;;
10309;SDS011;5200;43.236;27.986;2023-10-13T04:01:44;6.97;;;1.92;;
10309;SDS011;5200;43.236;27.986;2023-10-13T04:04:13;2.97;;;1.80;;
10309;SDS011;5200;43.236;27.986;2023-10-13T04:06:41;5.97;;;1.65;;
10309;SDS011;5200;43.236;27.986;2023-10-13T04:09:21;5.85;;;1.85;;
10309;SDS011;5200;43.236;27.986;2023-10-13T04:12:34;4.22;;;1.73;;
10309;SDS011;5200;43.236;27.986;2023-10-13T04:15:19;4.18;;;1.75;;
10309;SDS011;5200;43.236;27.986;2023-10-13T04:17:48;2.88;;;1.27;;
10309;SDS011;5200;43.236;27.986;2023-10-13T04:20:16;4.47;;;2.17;;
10309;SDS011;5200;43.236;27.986;2023-10-13T04:22:58;7.20;;;1.98;;
10309;SDS011;5200;43.236;27.986;2023-10-13T04:25:45;6.60;;;1.52;;
10309;SDS011;5200;43.236;27.986;2023-10-13T04:28:35;3.92;;;1.45;;
10309;SDS011;5200;43.236;27.986;2023-10-13T04:31:16;3.40;;;1.70;;
10309;SDS011;5200;43.236;27.986;2023-10-13T04:34:05;4.43;;;1.80;;
10309;SDS011;5200;43.236;27.986;2023-10-13T04:36:40;3.03;;;2.03;;
10309;SDS011;5200;43.236;27.986;2023-10-13T04:39:11;4.38;;;1.65;;
10309;SDS011;5200;43.236;27.986;2023-10-13T04:41:55;1.52;;;1.42;;
10309;SDS011;5200;43.236;27.986;2023-10-13T04:44:38;8.23;;;2.00;;
10309;SDS011;5200;43.236;27.986;2023-10-13T04:47:13;5.38;;;2.25;;
10309;SDS011;5200;43.236;27.986;2023-10-13T04:49:46;6.38;;;1.70;;
10309;SDS011;5200;43.236;27.986;2023-10-13T04:52:17;6.95;;;2.38;;
10309;SDS011;5200;43.236;27.986;2023-10-13T04:55:16;4.25;;;1.80;;
10309;SDS011;5200;43.236;27.986;2023-10-13T04:57:51;10.73;;;2.42;;
10309;SDS011;5200;43.236;27.986;2023-10-13T05:00:25;6.82;;;2.15;;
10309;SDS011;5200;43.236;27.986;2023-10-13T05:03:09;5.35;;;2.15;;
10309;SDS011;5200;43.236;27.986;2023-10-13T05:05:54;5.78;;;3.15;;
10309;SDS011;5200;43.236;27.986;2023-10-13T05:08:52;5.25;;;2.58;;
10309;SDS011;5200;43.236;27.986;2023-10-13T05:11:35;13.75;;;3.63;;
10309;SDS011;5200;43.236;27.986;2023-10-13T05:14:21;11.45;;;2.70;;
10309;SDS011;5200;43.236;27.986;2023-10-13T05:17:05;13.50;;;2.95;;
10309;SDS011;5200;43.236;27.986;2023-10-13T05:19:50;9.55;;;2.50;;
10309;SDS011;5200;43.236;27.986;2023-10-13T05:22:34;6.65;;;2.53;;
10309;SDS011;5200;43.236;27.986;2023-10-13T05:25:18;8.57;;;2.53;;
10309;SDS011;5200;43.236;27.986;2023-10-13T05:28:02;18.30;;;2.65;;
10309;SDS011;5200;43.236;27.986;2023-10-13T05:30:48;4.22;;;2.35;;
10309;SDS011;5200;43.236;27.986;2023-10-13T05:33:32;9.85;;;2.85;;
10309;SDS011;5200;43.236;27.986;2023-10-13T05:36:16;17.58;;;3.25;;
10309;SDS011;5200;43.236;27.986;2023-10-13T05:39:00;13.45;;;3.35;;
10309;SDS011;5200;43.236;27.986;2023-10-13T05:41:45;12.07;;;3.40;;
10309;SDS011;5200;43.236;27.986;2023-10-13T05:44:29;12.20;;;2.88;;
10309;SDS011;5200;43.236;27.986;2023-10-13T05:47:03;13.00;;;3.15;;
10309;SDS011;5200;43.236;27.986;2023-10-13T05:49:53;6.88;;;2.95;;
10309;SDS011;5200;43.236;27.986;2023-10-13T05:52:30;10.60;;;2.40;;
10309;SDS011;5200;43.236;27.986;2023-10-13T05:55:24;17.83;;;2.60;;
10309;SDS011;5200;43.236;27.986;2023-10-13T05:58:09;5.43;;;2.55;;
10309;SDS011;5200;43.236;27.986;2023-10-13T06:00:53;5.30;;;2.30;;
10309;SDS011;5200;43.236;27.986;2023-10-13T06:03:39;8.75;;;2.65;;
10309;SDS011;5200;43.236;27.986;2023-10-13T06:06:23;9.70;;;2.30;;
10309;SDS011;5200;43.236;27.986;2023-10-13T06:09:08;12.68;;;2.58;;
10309;SDS011;5200;43.236;27.986;2023-10-13T06:11:52;6.43;;;3.28;;
10309;SDS011;5200;43.236;27.986;2023-10-13T06:14:37;5.13;;;2.60;;
10309;SDS011;5200;43.236;27.986;2023-10-13T06:17:22;5.82;;;2.80;;
10309;SDS011;5200;43.236;27.986;2023-10-13T06:20:08;10.80;;;2.75;;
10309;SDS011;5200;43.236;27.986;2023-10-13T06:22:52;10.40;;;3.80;;
10309;SDS011;5200;43.236;27.986;2023-10-13T06:25:37;14.10;;;4.05;;
10309;SDS011;5200;43.236;27.986;2023-10-13T06:28:21;7.65;;;3.38;;
10309;SDS011;5200;43.236;27.986;2023-10-13T06:31:07;17.33;;;3.67;;
10309;SDS011;5200;43.236;27.986;2023-10-13T06:33:38;8.02;;;3.25;;
10309;SDS011;5200;43.236;27.986;2023-10-13T06:36:11;15.30;;;3.67;;
10309;SDS011;5200;43.236;27.986;2023-10-13T06:38:38;9.80;;;3.90;;
10309;SDS011;5200;43.236;27.986;2023-10-13T06:41:07;14.80;;;3.70;;
10309;SDS011;5200;43.236;27.986;2023-10-13T06:43:34;6.22;;;3.22;;
10309;SDS011;5200;43.236;27.986;2023-10-13T06:46:06;8.38;;;3.10;;
10309;SDS011;5200;43.236;27.986;2023-10-13T06:48:39;10.55;;;3.58;;
10309;SDS011;5200;43.236;27.986;2023-10-13T06:51:07;12.88;;;3.80;;
10309;SDS011;5200;43.236;27.986;2023-10-13T06:53:44;7.70;;;3.63;;
10309;SDS011;5200;43.236;27.986;2023-10-13T06:56:13;12.73;;;3.55;;
10309;SDS011;5200;43.236;27.986;2023-10-13T06:58:43;10.85;;;6.22;;
10309;SDS011;5200;43.236;27.986;2023-10-13T07:01:12;12.20;;;4.97;;
10309;SDS011;5200;43.236;27.986;2023-10-13T07:03:46;22.65;;;8.30;;
10309;SDS011;5200;43.236;27.986;2023-10-13T07:06:18;13.77;;;6.50;;
10309;SDS011;5200;43.236;27.986;2023-10-13T07:08:46;14.75;;;6.57;;
10309;SDS011;5200;43.236;27.986;2023-10-13T07:11:17;18.40;;;7.22;;
10309;SDS011;5200;43.236;27.986;2023-10-13T07:13:58;15.73;;;8.10;;
10309;SDS011;5200;43.236;27.986;2023-10-13T07:16:34;14.27;;;7.90;;
10309;SDS011;5200;43.236;27.986;2023-10-13T07:19:02;17.77;;;8.43;;
10309;SDS011;5200;43.236;27.986;2023-10-13T07:21:31;25.70;;;9.13;;
10309;SDS011;5200;43.236;27.986;2023-10-13T07:24:00;24.27;;;9.73;;
10309;SDS011;5200;43.236;27.986;2023-10-13T07:26:33;21.90;;;10.73;;
10309;SDS011;5200;43.236;27.986;2023-10-13T07:29:06;22.27;;;10.63;;
10309;SDS011;5200;43.236;27.986;2023-10-13T07:31:34;22.73;;;10.40;;
10309;SDS011;5200;43.236;27.986;2023-10-13T07:34:03;20.23;;;10.68;;
10309;SDS011;5200;43.236;27.986;2023-10-13T07:36:38;20.67;;;10.52;;
10309;SDS011;5200;43.236;27.986;2023-10-13T07:39:07;25.58;;;10.65;;
10309;SDS011;5200;43.236;27.986;2023-10-13T07:41:49;16.45;;;9.45;;
10309;SDS011;5200;43.236;27.986;2023-10-13T07:44:21;20.10;;;10.30;;
10309;SDS011;5200;43.236;27.986;2023-10-13T07:46:50;19.25;;;9.63;;
10309;SDS011;5200;43.236;27.986;2023-10-13T07:49:31;24.85;;;9.55;;
10309;SDS011;5200;43.236;27.986;2023-10-13T07:52:01;19.25;;;8.88;;
10309;SDS011;5200;43.236;27.986;2023-10-13T07:54:45;18.17;;;8.40;;
10309;SDS011;5200;43.236;27.986;2023-10-13T07:57:21;11.43;;;7.72;;
10309;SDS011;5200;43.236;27.986;2023-10-13T07:59:54;15.52;;;6.07;;
10309;SDS011;5200;43.236;27.986;2023-10-13T08:02:31;15.02;;;6.18;;
10309;SDS011;5200;43.236;27.986;2023-10-13T08:05:14;19.13;;;7.38;;
10309;SDS011;5200;43.236;27.986;2023-10-13T08:07:49;16.48;;;6.68;;
10309;SDS011;5200;43.236;27.986;2023-10-13T08:10:18;14.32;;;6.07;;
10309;SDS011;5200;43.236;27.986;2023-10-13T08:12:50;13.35;;;5.70;;
10309;SDS011;5200;43.236;27.986;2023-10-13T08:15:17;14.77;;;5.80;;
10309;SDS011;5200;43.236;27.986;2023-10-13T08:17:57;12.82;;;5.18;;
10309;SDS011;5200;43.236;27.986;2023-10-13T08:20:28;13.65;;;5.30;;
10309;SDS011;5200;43.236;27.986;2023-10-13T08:23:03;13.13;;;5.45;;
10309;SDS011;5200;43.236;27.986;2023-10-13T08:25:39;10.35;;;4.45;;
10309;SDS011;5200;43.236;27.986;2023-10-13T08:28:32;6.97;;;4.32;;
10309;SDS011;5200;43.236;27.986;2023-10-13T08:31:19;14.02;;;5.22;;
10309;SDS011;5200;43.236;27.986;2023-10-13T08:33:47;8.10;;;5.32;;
10309;SDS011;5200;43.236;27.986;2023-10-13T08:36:14;10.50;;;4.75;;
10309;SDS011;5200;43.236;27.986;2023-10-13T08:38:53;13.05;;;4.15;;
10309;SDS011;5200;43.236;27.986;2023-10-13T08:41:23;9.48;;;5.00;;
10309;SDS011;5200;43.236;27.986;2023-10-13T08:43:59;12.55;;;5.10;;
10309;SDS011;5200;43.236;27.986;2023-10-13T08:46:34;6.90;;;5.05;;
10309;SDS011;5200;43.236;27.986;2023-10-13T08:49:31;9.15;;;4.00;;
10309;SDS011;5200;43.236;27.986;2023-10-13T08:52:05;14.32;;;3.72;;
10309;SDS011;5200;43.236;27.986;2023-10-13T08:55:00;7.40;;;4.20;;
10309;SDS011;5200;43.236;27.986;2023-10-13T08:58:01;8.93;;;3.40;;
10309;SDS011;5200;43.236;27.986;2023-10-13T09:00:38;9.32;;;3.20;;
10309;SDS011;5200;43.236;27.986;2023-10-13T09:03:22;8.20;;;3.47;;
10309;SDS011;5200;43.236;27.986;2023-10-13T09:06:03;6.22;;;2.80;;
10309;SDS011;5200;43.236;27.986;2023-10-13T09:08:31;5.97;;;3.30;;
10309;SDS011;5200;43.236;27.986;2023-10-13T09:11:09;6.85;;;3.65;;
10309;SDS011;5200;43.236;27.986;2023-10-13T09:13:47;10.10;;;3.58;;
10309;SDS011;5200;43.236;27.986;2023-10-13T09:16:13;7.40;;;3.13;;
10309;SDS011;5200;43.236;27.986;2023-10-13T09:18:47;4.93;;;3.10;;
10309;SDS011;5200;43.236;27.986;2023-10-13T09:21:17;6.32;;;3.20;;
10309;SDS011;5200;43.236;27.986;2023-10-13T09:24:02;6.47;;;3.00;;
10309;SDS011;5200;43.236;27.986;2023-10-13T09:26:47;6.15;;;3.15;;
10309;SDS011;5200;43.236;27.986;2023-10-13T09:29:18;4.03;;;2.50;;
10309;SDS011;5200;43.236;27.986;2023-10-13T09:31:46;3.95;;;2.70;;
10309;SDS011;5200;43.236;27.986;2023-10-13T09:34:19;4.07;;;2.72;;
10309;SDS011;5200;43.236;27.986;2023-10-13T09:36:47;7.22;;;3.30;;
10309;SDS011;5200;43.236;27.986;2023-10-13T09:39:21;5.60;;;2.60;;
10309;SDS011;5200;43.236;27.986;2023-10-13T09:42:00;4.53;;;2.80;;
10309;SDS011;5200;43.236;27.986;2023-10-13T09:44:30;3.78;;;2.42;;
10309;SDS011;5200;43.236;27.986;2023-10-13T09:47:00;2.85;;;2.55;;
10309;SDS011;5200;43.236;27.986;2023-10-13T09:49:34;3.90;;;2.40;;
10309;SDS011;5200;43.236;27.986;2023-10-13T09:52:15;5.82;;;3.00;;
10309;SDS011;5200;43.236;27.986;2023-10-13T09:55:02;4.55;;;2.80;;
10309;SDS011;5200;43.236;27.986;2023-10-13T09:57:40;5.53;;;2.58;;
10309;SDS011;5200;43.236;27.986;2023-10-13T10:00:15;5.70;;;3.08;;
10309;SDS011;5200;43.236;27.986;2023-10-13T10:03:02;5.75;;;2.42;;
10309;SDS011;5200;43.236;27.986;2023-10-13T10:05:40;3.58;;;2.47;;
10309;SDS011;5200;43.236;27.986;2023-10-13T10:08:07;7.50;;;2.28;;
10309;SDS011;5200;43.236;27.986;2023-10-13T10:10:43;3.58;;;2.13;;
10309;SDS011;5200;43.236;27.986;2023-10-13T10:13:19;7.35;;;2.13;;
10309;SDS011;5200;43.236;27.986;2023-10-13T10:15:57;5.22;;;2.20;;
10309;SDS011;5200;43.236;27.986;2023-10-13T10:18:31;5.65;;;2.20;;
10309;SDS011;5200;43.236;27.986;2023-10-13T10:21:02;4.15;;;2.40;;
10309;SDS011;5200;43.236;27.986;2023-10-13T10:23:32;4.70;;;2.33;;
10309;SDS011;5200;43.236;27.986;2023-10-13T10:26:11;4.18;;;2.35;;
10309;SDS011;5200;43.236;27.986;2023-10-13T10:28:41;8.65;;;2.60;;
10309;SDS011;5200;43.236;27.986;2023-10-13T10:31:10;6.68;;;2.30;;
10309;SDS011;5200;43.236;27.986;2023-10-13T10:33:39;10.57;;;3.88;;
10309;SDS011;5200;43.236;27.986;2023-10-13T10:36:06;2.80;;;2.45;;
10309;SDS011;5200;43.236;27.986;2023-10-13T10:38:50;4.45;;;2.70;;
10309;SDS011;5200;43.236;27.986;2023-10-13T10:41:24;4.38;;;2.20;;
10309;SDS011;5200;43.236;27.986;2023-10-13T10:43:55;4.70;;;1.80;;
10309;SDS011;5200;43.236;27.986;2023-10-13T10:46:26;8.07;;;1.95;;
10309;SDS011;5200;43.236;27.986;2023-10-13T10:49:03;6.38;;;2.80;;
10309;SDS011;5200;43.236;27.986;2023-10-13T10:51:33;3.65;;;2.72;;
10309;SDS011;5200;43.236;27.986;2023-10-13T10:54:17;4.13;;;2.22;;
10309;SDS011;5200;43.236;27.986;2023-10-13T10:56:45;6.72;;;3.10;;
10309;SDS011;5200;43.236;27.986;2023-10-13T10:59:18;6.22;;;2.40;;
10309;SDS011;5200;43.236;27.986;2023-10-13T11:01:51;5.35;;;2.17;;
10309;SDS011;5200;43.236;27.986;2023-10-13T11:04:18;6.65;;;2.70;;
10309;SDS011;5200;43.236;27.986;2023-10-13T11:06:50;5.05;;;2.33;;
10309;SDS011;5200;43.236;27.986;2023-10-13T11:09:23;5.82;;;2.10;;
10309;SDS011;5200;43.236;27.986;2023-10-13T11:12:11;5.35;;;2.17;;
10309;SDS011;5200;43.236;27.986;2023-10-13T11:14:49;3.28;;;2.10;;
10309;SDS011;5200;43.236;27.986;2023-10-13T11:17:28;2.30;;;1.88;;
10309;SDS011;5200;43.236;27.986;2023-10-13T11:20:10;7.30;;;2.63;;
10309;SDS011;5200;43.236;27.986;2023-10-13T11:22:45;4.28;;;2.80;;
10309;SDS011;5200;43.236;27.986;2023-10-13T11:25:19;8.95;;;2.97;;
10309;SDS011;5200;43.236;27.986;2023-10-13T11:27:54;8.35;;;2.10;;
10309;SDS011;5200;43.236;27.986;2023-10-13T11:30:24;6.60;;;2.00;;
10309;SDS011;5200;43.236;27.986;2023-10-13T11:32:59;6.80;;;1.92;;
10309;SDS011;5200;43.236;27.986;2023-10-13T11:35:30;2.97;;;1.98;;
10309;SDS011;5200;43.236;27.986;2023-10-13T11:38:14;7.40;;;1.95;;
10309;SDS011;5200;43.236;27.986;2023-10-13T11:40:40;4.72;;;2.05;;
10309;SDS011;5200;43.236;27.986;2023-10-13T11:43:09;6.50;;;2.03;;
10309;SDS011;5200;43.236;27.986;2023-10-13T11:48:17;4.32;;;2.00;;
10309;SDS011;5200;43.236;27.986;2023-10-13T11:50:59;1.67;;;1.58;;
10309;SDS011;5200;43.236;27.986;2023-10-13T11:53:24;4.05;;;2.20;;
10309;SDS011;5200;43.236;27.986;2023-10-13T11:55:54;7.15;;;2.00;;
10309;SDS011;5200;43.236;27.986;2023-10-13T11:58:21;4.18;;;1.88;;
10309;SDS011;5200;43.236;27.986;2023-10-13T12:00:48;9.18;;;2.10;;
10309;SDS011;5200;43.236;27.986;2023-10-13T12:03:21;4.80;;;1.65;;
10309;SDS011;5200;43.236;27.986;2023-10-13T12:06:08;3.13;;;1.95;;
10309;SDS011;5200;43.236;27.986;2023-10-13T12:08:47;2.00;;;1.80;;
10309;SDS011;5200;43.236;27.986;2023-10-13T12:11:17;3.83;;;1.98;;
10309;SDS011;5200;43.236;27.986;2023-10-13T12:13:56;3.70;;;2.08;;
10309;SDS011;5200;43.236;27.986;2023-10-13T12:16:23;2.20;;;1.98;;
10309;SDS011;5200;43.236;27.986;2023-10-13T12:19:00;6.50;;;2.03;;
10309;SDS011;5200;43.236;27.986;2023-10-13T12:21:27;2.30;;;1.77;;
10309;SDS011;5200;43.236;27.986;2023-10-13T12:23:54;5.03;;;2.00;;
10309;SDS011;5200;43.236;27.986;2023-10-13T12:26:21;8.15;;;3.22;;
10309;SDS011;5200;43.236;27.986;2023-10-13T12:28:57;11.07;;;5.57;;
10309;SDS011;5200;43.236;27.986;2023-10-13T12:31:31;7.63;;;4.07;;
10309;SDS011;5200;43.236;27.986;2023-10-13T12:34:05;6.32;;;2.80;;
10309;SDS011;5200;43.236;27.986;2023-10-13T12:36:39;6.05;;;2.33;;
10309;SDS011;5200;43.236;27.986;2023-10-13T12:39:18;7.45;;;2.58;;
10309;SDS011;5200;43.236;27.986;2023-10-13T12:42:02;4.68;;;2.30;;
10309;SDS011;5200;43.236;27.986;2023-10-13T12:44:47;5.28;;;2.50;;
10309;SDS011;5200;43.236;27.986;2023-10-13T12:47:31;8.73;;;2.83;;
10309;SDS011;5200;43.236;27.986;2023-10-13T12:50:21;6.50;;;2.20;;
10309;SDS011;5200;43.236;27.986;2023-10-13T12:52:59;8.80;;;2.92;;
10309;SDS011;5200;43.236;27.986;2023-10-13T12:55:26;8.48;;;2.30;;
10309;SDS011;5200;43.236;27.986;2023-10-13T12:57:53;4.30;;;1.88;;
10309;SDS011;5200;43.236;27.986;2023-10-13T13:00:20;3.63;;;2.33;;
10309;SDS011;5200;43.236;27.986;2023-10-13T13:02:49;5.57;;;1.95;;
10309;SDS011;5200;43.236;27.986;2023-10-13T13:05:21;3.47;;;2.28;;
10309;SDS011;5200;43.236;27.986;2023-10-13T13:07:53;4.78;;;2.13;;
10309;SDS011;5200;43.236;27.986;2023-10-13T13:10:21;5.72;;;2.22;;
10309;SDS011;5200;43.236;27.986;2023-10-13T13:13:00;7.10;;;2.42;;
10309;SDS011;5200;43.236;27.986;2023-10-13T13:15:28;7.63;;;2.50;;
10309;SDS011;5200;43.236;27.986;2023-10-13T13:17:55;4.50;;;2.30;;
10309;SDS011;5200;43.236;27.986;2023-10-13T13:20:23;12.52;;;2.20;;
10309;SDS011;5200;43.236;27.986;2023-10-13T13:22:54;7.70;;;2.28;;
10309;SDS011;5200;43.236;27.986;2023-10-13T13:25:27;5.70;;;2.28;;
10309;SDS011;5200;43.236;27.986;2023-10-13T13:27:55;7.85;;;2.15;;
10309;SDS011;5200;43.236;27.986;2023-10-13T13:30:23;6.68;;;2.58;;
10309;SDS011;5200;43.236;27.986;2023-10-13T13:32:55;6.63;;;2.30;;
10309;SDS011;5200;43.236;27.986;2023-10-13T13:35:25;7.90;;;2.40;;
10309;SDS011;5200;43.236;27.986;2023-10-13T13:37:58;4.95;;;2.22;;
10309;SDS011;5200;43.236;27.986;2023-10-13T13:40:31;2.42;;;1.92;;
10309;SDS011;5200;43.236;27.986;2023-10-13T13:43:00;11.07;;;2.20;;
10309;SDS011;5200;43.236;27.986;2023-10-13T13:45:27;7.30;;;2.50;;
10309;SDS011;5200;43.236;27.986;2023-10-13T13:47:53;10.48;;;2.20;;
10309;SDS011;5200;43.236;27.986;2023-10-13T13:50:21;6.22;;;2.70;;
10309;SDS011;5200;43.236;27.986;2023-10-13T13:52:53;5.00;;;1.90;;
10309;SDS011;5200;43.236;27.986;2023-10-13T13:55:21;2.38;;;2.05;;
10309;SDS011;5200;43.236;27.986;2023-10-13T13:57:48;5.18;;;2.10;;
10309;SDS011;5200;43.236;27.986;2023-10-13T14:00:17;6.68;;;1.98;;
10309;SDS011;5200;43.236;27.986;2023-10-13T14:02:48;4.80;;;2.10;;
10309;SDS011;5200;43.236;27.986;2023-10-13T14:05:15;5.00;;;2.22;;
10309;SDS011;5200;43.236;27.986;2023-10-13T14:07:42;11.15;;;3.00;;
10309;SDS011;5200;43.236;27.986;2023-10-13T14:10:15;8.30;;;1.90;;
10309;SDS011;5200;43.236;27.986;2023-10-13T14:12:57;5.50;;;2.25;;
10309;SDS011;5200;43.236;27.986;2023-10-13T14:15:32;5.13;;;1.83;;
10309;SDS011;5200;43.236;27.986;2023-10-13T14:18:05;3.15;;;1.85;;
10309;SDS011;5200;43.236;27.986;2023-10-13T14:20:39;3.45;;;2.30;;
10309;SDS011;5200;43.236;27.986;2023-10-13T14:23:07;4.45;;;2.17;;
10309;SDS011;5200;43.236;27.986;2023-10-13T14:25:38;8.00;;;2.33;;
10309;SDS011;5200;43.236;27.986;2023-10-13T14:28:09;4.57;;;2.20;;
10309;SDS011;5200;43.236;27.986;2023-10-13T14:30:42;5.00;;;2.30;;
10309;SDS011;5200;43.236;27.986;2023-10-13T14:33:09;3.00;;;1.80;;
10309;SDS011;5200;43.236;27.986;2023-10-13T14:35:36;6.15;;;1.90;;
10309;SDS011;5200;43.236;27.986;2023-10-13T14:38:04;17.30;;;10.00;;
10309;SDS011;5200;43.236;27.986;2023-10-13T14:40:32;10.70;;;6.03;;
10309;SDS011;5200;43.236;27.986;2023-10-13T14:43:00;9.38;;;5.10;;
10309;SDS011;5200;43.236;27.986;2023-10-13T14:45:29;3.75;;;2.40;;
10309;SDS011;5200;43.236;27.986;2023-10-13T14:47:59;3.78;;;2.20;;
10309;SDS011;5200;43.236;27.986;2023-10-13T14:50:25;4.47;;;2.38;;
10309;SDS011;5200;43.236;27.986;2023-10-13T14:52:53;4.10;;;2.22;;
10309;SDS011;5200;43.236;27.986;2023-10-13T14:55:20;7.45;;;2.58;;
10309;SDS011;5200;43.236;27.986;2023-10-13T14:58:04;3.90;;;2.10;;
10309;SDS011;5200;43.236;27.986;2023-10-13T15:00:33;4.60;;;2.30;;
10309;SDS011;5200;43.236;27.986;2023-10-13T15:03:00;6.90;;;2.38;;
10309;SDS011;5200;43.236;27.986;2023-10-13T15:05:30;9.43;;;2.08;;
10309;SDS011;5200;43.236;27.986;2023-10-13T15:07:58;8.48;;;2.67;;
10309;SDS011;5200;43.236;27.986;2023-10-13T15:10:25;12.88;;;2.55;;
10309;SDS011;5200;43.236;27.986;2023-10-13T15:12:52;2.65;;;2.08;;
10309;SDS011;5200;43.236;27.986;2023-10-13T15:15:20;7.18;;;2.50;;
10309;SDS011;5200;43.236;27.986;2023-10-13T15:17:47;14.10;;;3.13;;
10309;SDS011;5200;43.236;27.986;2023-10-13T15:20:15;9.25;;;3.58;;
10309;SDS011;5200;43.236;27.986;2023-10-13T15:22:42;9.32;;;2.92;;
10309;SDS011;5200;43.236;27.986;2023-10-13T15:25:09;12.10;;;3.47;;
10309;SDS011;5200;43.236;27.986;2023-10-13T15:27:46;6.63;;;3.17;;